sensor_id;sensor_type;location;lat;lon;timestamp;temperature;humidity
23721;DHT22;42950;52.134;5.578;2022-07-29T00:00:43;16.80;99.90
23721;DHT22;42950;52.134;5.578;2022-07-29T00:03:12;16.60;99.90
23721;DHT22;42950;52.134;5.578;2022-07-29T00:05:40;16.70;99.90
23721;DHT22;42950;52.134;5.578;2022-07-29T00:08:09;16.60;99.90
23721;DHT22;42950;52.134;5.578;2022-07-29T00:10:35;16.50;99.90
23721;DHT22;42950;52.134;5.578;2022-07-29T00:13:01;16.50;99.90
23721;DHT22;42950;52.134;5.578;2022-07-29T00:15:27;16.50;99.90
23721;DHT22;42950;52.134;5.578;2022-07-29T00:17:54;16.60;99.90
23721;DHT22;42950;52.134;5.578;2022-07-29T00:20:20;16.60;99.90
23721;DHT22;42950;52.134;5.578;2022-07-29T00:22:46;16.60;99.90
23721;DHT22;42950;52.134;5.578;2022-07-29T00:25:12;16.60;99.90
23721;DHT22;42950;52.134;5.578;2022-07-29T00:27:38;16.50;99.90
23721;DHT22;42950;52.134;5.578;2022-07-29T00:30:06;16.50;99.90
23721;DHT22;42950;52.134;5.578;2022-07-29T00:32:32;16.50;99.90
23721;DHT22;42950;52.134;5.578;2022-07-29T00:34:58;16.40;99.90
23721;DHT22;42950;52.134;5.578;2022-07-29T00:37:44;16.40;99.90
23721;DHT22;42950;52.134;5.578;2022-07-29T00:40:10;16.50;99.90
23721;DHT22;42950;52.134;5.578;2022-07-29T00:42:43;16.40;99.90
23721;DHT22;42950;52.134;5.578;2022-07-29T00:45:09;16.40;99.90
23721;DHT22;42950;52.134;5.578;2022-07-29T00:47:35;16.40;99.90
23721;DHT22;42950;52.134;5.578;2022-07-29T00:50:00;16.40;99.90
23721;DHT22;42950;52.134;5.578;2022-07-29T00:52:26;16.40;99.90
23721;DHT22;42950;52.134;5.578;2022-07-29T00:54:52;16.40;99.90
23721;DHT22;42950;52.134;5.578;2022-07-29T00:57:18;16.30;99.90
23721;DHT22;42950;52.134;5.578;2022-07-29T00:59:44;16.30;99.90
23721;DHT22;42950;52.134;5.578;2022-07-29T01:02:10;16.20;99.90
23721;DHT22;42950;52.134;5.578;2022-07-29T01:04:36;16.20;99.90
23721;DHT22;42950;52.134;5.578;2022-07-29T01:07:03;16.20;99.90
23721;DHT22;42950;52.134;5.578;2022-07-29T01:09:31;16.20;99.90
23721;DHT22;42950;52.134;5.578;2022-07-29T01:11:59;16.20;99.90
23721;DHT22;42950;52.134;5.578;2022-07-29T01:14:25;16.10;99.90
23721;DHT22;42950;52.134;5.578;2022-07-29T01:16:59;16.10;99.90
23721;DHT22;42950;52.134;5.578;2022-07-29T01:25:13;16.10;99.90
23721;DHT22;42950;52.134;5.578;2022-07-29T01:30:27;16.10;99.90
23721;DHT22;42950;52.134;5.578;2022-07-29T01:33:02;16.20;99.90
23721;DHT22;42950;52.134;5.578;2022-07-29T01:35:38;16.10;99.90
23721;DHT22;42950;52.134;5.578;2022-07-29T01:38:15;16.10;99.90
23721;DHT22;42950;52.134;5.578;2022-07-29T01:40:51;16.10;99.90
23721;DHT22;42950;52.134;5.578;2022-07-29T01:43:20;16.10;99.90
23721;DHT22;42950;52.134;5.578;2022-07-29T01:46:04;16.10;99.90
23721;DHT22;42950;52.134;5.578;2022-07-29T01:48:55;16.20;99.90
23721;DHT22;42950;52.134;5.578;2022-07-29T01:51:31;16.10;99.90
23721;DHT22;42950;52.134;5.578;2022-07-29T01:54:18;16.10;99.90
23721;DHT22;42950;52.134;5.578;2022-07-29T01:56:47;16.10;99.90
23721;DHT22;42950;52.134;5.578;2022-07-29T01:59:16;16.10;99.90
23721;DHT22;42950;52.134;5.578;2022-07-29T02:01:45;16.10;99.90
23721;DHT22;42950;52.134;5.578;2022-07-29T02:04:13;16.10;99.90
23721;DHT22;42950;52.134;5.578;2022-07-29T02:06:41;16.10;99.90
23721;DHT22;42950;52.134;5.578;2022-07-29T02:09:10;16.00;99.90
23721;DHT22;42950;52.134;5.578;2022-07-29T02:11:38;16.00;99.90
23721;DHT22;42950;52.134;5.578;2022-07-29T02:14:07;16.00;99.90
23721;DHT22;42950;52.134;5.578;2022-07-29T02:16:35;16.00;99.90
23721;DHT22;42950;52.134;5.578;2022-07-29T02:19:03;16.00;99.90
23721;DHT22;42950;52.134;5.578;2022-07-29T02:21:32;16.10;99.90
23721;DHT22;42950;52.134;5.578;2022-07-29T02:24:01;16.10;99.90
23721;DHT22;42950;52.134;5.578;2022-07-29T02:26:28;16.10;99.90
23721;DHT22;42950;52.134;5.578;2022-07-29T02:28:56;16.10;99.90
23721;DHT22;42950;52.134;5.578;2022-07-29T02:31:26;16.00;99.90
23721;DHT22;42950;52.134;5.578;2022-07-29T02:33:54;16.00;99.90
23721;DHT22;42950;52.134;5.578;2022-07-29T02:36:23;16.10;99.90
23721;DHT22;42950;52.134;5.578;2022-07-29T02:38:50;16.00;99.90
23721;DHT22;42950;52.134;5.578;2022-07-29T02:41:26;16.00;99.90
23721;DHT22;42950;52.134;5.578;2022-07-29T02:43:55;16.00;99.90
23721;DHT22;42950;52.134;5.578;2022-07-29T02:46:29;16.00;99.90
23721;DHT22;42950;52.134;5.578;2022-07-29T02:49:09;16.00;99.90
23721;DHT22;42950;52.134;5.578;2022-07-29T02:51:43;16.00;99.90
23721;DHT22;42950;52.134;5.578;2022-07-29T02:54:10;16.00;99.90
23721;DHT22;42950;52.134;5.578;2022-07-29T02:56:41;15.90;99.90
23721;DHT22;42950;52.134;5.578;2022-07-29T02:59:11;15.90;99.90
23721;DHT22;42950;52.134;5.578;2022-07-29T03:01:41;15.90;99.90
23721;DHT22;42950;52.134;5.578;2022-07-29T03:04:09;15.90;99.90
23721;DHT22;42950;52.134;5.578;2022-07-29T03:06:37;15.90;99.90
23721;DHT22;42950;52.134;5.578;2022-07-29T03:09:04;15.90;99.90
23721;DHT22;42950;52.134;5.578;2022-07-29T03:11:32;15.90;99.90
23721;DHT22;42950;52.134;5.578;2022-07-29T03:14:00;15.90;99.90
23721;DHT22;42950;52.134;5.578;2022-07-29T03:16:27;15.90;99.90
23721;DHT22;42950;52.134;5.578;2022-07-29T03:18:54;15.90;99.90
23721;DHT22;42950;52.134;5.578;2022-07-29T03:21:20;15.90;99.90
23721;DHT22;42950;52.134;5.578;2022-07-29T03:23:46;16.00;99.90
23721;DHT22;42950;52.134;5.578;2022-07-29T03:26:12;16.00;99.90
23721;DHT22;42950;52.134;5.578;2022-07-29T03:28:38;15.90;99.90
23721;DHT22;42950;52.134;5.578;2022-07-29T03:31:04;15.90;99.90
23721;DHT22;42950;52.134;5.578;2022-07-29T03:33:30;15.90;99.90
23721;DHT22;42950;52.134;5.578;2022-07-29T03:35:56;15.80;99.90
23721;DHT22;42950;52.134;5.578;2022-07-29T03:38:25;15.70;99.90
23721;DHT22;42950;52.134;5.578;2022-07-29T03:40:55;15.70;99.90
23721;DHT22;42950;52.134;5.578;2022-07-29T03:43:23;15.70;99.90
23721;DHT22;42950;52.134;5.578;2022-07-29T03:45:51;15.60;99.90
23721;DHT22;42950;52.134;5.578;2022-07-29T03:48:20;15.60;99.90
23721;DHT22;42950;52.134;5.578;2022-07-29T03:50:46;15.70;99.90
23721;DHT22;42950;52.134;5.578;2022-07-29T03:53:12;15.60;99.90
23721;DHT22;42950;52.134;5.578;2022-07-29T03:55:44;15.60;99.90
23721;DHT22;42950;52.134;5.578;2022-07-29T03:58:12;15.60;99.90
23721;DHT22;42950;52.134;5.578;2022-07-29T04:00:40;15.60;99.90
23721;DHT22;42950;52.134;5.578;2022-07-29T04:03:06;15.60;99.90
23721;DHT22;42950;52.134;5.578;2022-07-29T04:05:34;15.60;99.90
23721;DHT22;42950;52.134;5.578;2022-07-29T04:08:00;15.60;99.90
23721;DHT22;42950;52.134;5.578;2022-07-29T04:10:26;15.60;99.90
23721;DHT22;42950;52.134;5.578;2022-07-29T04:12:52;15.50;99.90
23721;DHT22;42950;52.134;5.578;2022-07-29T04:15:18;15.60;99.90
23721;DHT22;42950;52.134;5.578;2022-07-29T04:17:45;15.60;99.90
23721;DHT22;42950;52.134;5.578;2022-07-29T04:20:12;15.60;99.90
23721;DHT22;42950;52.134;5.578;2022-07-29T04:22:41;15.50;99.90
23721;DHT22;42950;52.134;5.578;2022-07-29T04:25:07;15.50;99.90
23721;DHT22;42950;52.134;5.578;2022-07-29T04:27:33;15.60;99.90
23721;DHT22;42950;52.134;5.578;2022-07-29T04:29:59;15.70;99.90
23721;DHT22;42950;52.134;5.578;2022-07-29T04:32:25;15.70;99.90
23721;DHT22;42950;52.134;5.578;2022-07-29T04:34:52;15.70;99.90
23721;DHT22;42950;52.134;5.578;2022-07-29T04:37:18;15.70;99.90
23721;DHT22;42950;52.134;5.578;2022-07-29T04:39:44;15.60;99.90
23721;DHT22;42950;52.134;5.578;2022-07-29T04:42:10;15.60;99.90
23721;DHT22;42950;52.134;5.578;2022-07-29T04:44:36;15.70;99.90
23721;DHT22;42950;52.134;5.578;2022-07-29T04:47:01;15.70;99.90
23721;DHT22;42950;52.134;5.578;2022-07-29T04:49:27;15.70;99.90
23721;DHT22;42950;52.134;5.578;2022-07-29T04:51:53;15.80;99.90
23721;DHT22;42950;52.134;5.578;2022-07-29T04:54:19;15.80;99.90
23721;DHT22;42950;52.134;5.578;2022-07-29T04:56:44;15.80;99.90
23721;DHT22;42950;52.134;5.578;2022-07-29T04:59:11;15.70;99.90
23721;DHT22;42950;52.134;5.578;2022-07-29T05:01:37;15.80;99.90
23721;DHT22;42950;52.134;5.578;2022-07-29T05:04:03;15.70;99.90
23721;DHT22;42950;52.134;5.578;2022-07-29T05:06:29;15.70;99.90
23721;DHT22;42950;52.134;5.578;2022-07-29T05:08:54;15.60;99.90
23721;DHT22;42950;52.134;5.578;2022-07-29T05:11:20;15.50;99.90
23721;DHT22;42950;52.134;5.578;2022-07-29T05:13:46;15.50;99.90
23721;DHT22;42950;52.134;5.578;2022-07-29T05:16:11;15.50;99.90
23721;DHT22;42950;52.134;5.578;2022-07-29T05:18:38;15.60;99.90
23721;DHT22;42950;52.134;5.578;2022-07-29T05:21:04;15.60;99.90
23721;DHT22;42950;52.134;5.578;2022-07-29T05:23:30;15.50;99.90
23721;DHT22;42950;52.134;5.578;2022-07-29T05:25:56;15.60;99.90
23721;DHT22;42950;52.134;5.578;2022-07-29T05:28:22;15.60;99.90
23721;DHT22;42950;52.134;5.578;2022-07-29T05:30:48;15.60;99.90
23721;DHT22;42950;52.134;5.578;2022-07-29T05:33:14;15.60;99.90
23721;DHT22;42950;52.134;5.578;2022-07-29T05:35:40;15.70;99.90
23721;DHT22;42950;52.134;5.578;2022-07-29T05:38:06;15.80;99.90
23721;DHT22;42950;52.134;5.578;2022-07-29T05:40:32;15.80;99.90
23721;DHT22;42950;52.134;5.578;2022-07-29T05:42:57;15.90;99.90
23721;DHT22;42950;52.134;5.578;2022-07-29T05:45:23;15.90;99.90
23721;DHT22;42950;52.134;5.578;2022-07-29T05:47:56;15.90;99.90
23721;DHT22;42950;52.134;5.578;2022-07-29T05:50:22;15.90;99.90
23721;DHT22;42950;52.134;5.578;2022-07-29T05:52:48;15.90;99.90
23721;DHT22;42950;52.134;5.578;2022-07-29T05:55:14;15.90;99.90
23721;DHT22;42950;52.134;5.578;2022-07-29T05:57:39;15.80;99.90
23721;DHT22;42950;52.134;5.578;2022-07-29T06:00:05;15.80;99.90
23721;DHT22;42950;52.134;5.578;2022-07-29T06:02:32;15.80;99.90
23721;DHT22;42950;52.134;5.578;2022-07-29T06:04:58;15.90;99.90
23721;DHT22;42950;52.134;5.578;2022-07-29T06:07:24;16.00;99.90
23721;DHT22;42950;52.134;5.578;2022-07-29T06:09:49;15.90;99.90
23721;DHT22;42950;52.134;5.578;2022-07-29T06:12:15;16.00;99.90
23721;DHT22;42950;52.134;5.578;2022-07-29T06:14:40;16.00;99.90
23721;DHT22;42950;52.134;5.578;2022-07-29T06:17:06;16.10;99.90
23721;DHT22;42950;52.134;5.578;2022-07-29T06:19:34;16.20;99.90
23721;DHT22;42950;52.134;5.578;2022-07-29T06:22:00;16.20;99.90
23721;DHT22;42950;52.134;5.578;2022-07-29T06:24:25;16.40;99.90
23721;DHT22;42950;52.134;5.578;2022-07-29T06:26:51;16.50;99.90
23721;DHT22;42950;52.134;5.578;2022-07-29T06:29:17;16.60;99.90
23721;DHT22;42950;52.134;5.578;2022-07-29T06:31:42;16.60;99.90
23721;DHT22;42950;52.134;5.578;2022-07-29T06:34:08;16.70;99.90
23721;DHT22;42950;52.134;5.578;2022-07-29T06:36:35;16.80;99.90
23721;DHT22;42950;52.134;5.578;2022-07-29T06:39:03;17.00;99.90
23721;DHT22;42950;52.134;5.578;2022-07-29T06:41:28;16.90;99.90
23721;DHT22;42950;52.134;5.578;2022-07-29T06:43:55;16.90;99.90
23721;DHT22;42950;52.134;5.578;2022-07-29T06:46:21;16.90;99.90
23721;DHT22;42950;52.134;5.578;2022-07-29T06:48:47;17.00;99.90
23721;DHT22;42950;52.134;5.578;2022-07-29T06:51:13;17.00;99.90
23721;DHT22;42950;52.134;5.578;2022-07-29T06:53:39;16.90;99.90
23721;DHT22;42950;52.134;5.578;2022-07-29T06:56:06;16.90;99.90
23721;DHT22;42950;52.134;5.578;2022-07-29T06:58:34;17.00;99.90
23721;DHT22;42950;52.134;5.578;2022-07-29T07:01:02;17.00;99.90
23721;DHT22;42950;52.134;5.578;2022-07-29T07:03:28;16.90;99.90
23721;DHT22;42950;52.134;5.578;2022-07-29T07:05:55;16.90;99.90
23721;DHT22;42950;52.134;5.578;2022-07-29T07:08:21;17.10;99.90
23721;DHT22;42950;52.134;5.578;2022-07-29T07:10:47;17.30;99.90
23721;DHT22;42950;52.134;5.578;2022-07-29T07:13:13;17.20;99.90
23721;DHT22;42950;52.134;5.578;2022-07-29T07:15:39;17.30;99.90
23721;DHT22;42950;52.134;5.578;2022-07-29T07:18:06;17.30;99.90
23721;DHT22;42950;52.134;5.578;2022-07-29T07:20:33;17.40;99.90
23721;DHT22;42950;52.134;5.578;2022-07-29T07:22:59;17.60;99.90
23721;DHT22;42950;52.134;5.578;2022-07-29T07:25:24;17.60;99.90
23721;DHT22;42950;52.134;5.578;2022-07-29T07:27:50;17.60;99.90
23721;DHT22;42950;52.134;5.578;2022-07-29T07:30:15;17.60;99.90
23721;DHT22;42950;52.134;5.578;2022-07-29T07:32:42;17.70;99.90
23721;DHT22;42950;52.134;5.578;2022-07-29T07:35:08;17.80;99.90
23721;DHT22;42950;52.134;5.578;2022-07-29T07:37:34;17.70;99.90
23721;DHT22;42950;52.134;5.578;2022-07-29T07:40:00;17.70;99.90
23721;DHT22;42950;52.134;5.578;2022-07-29T07:42:26;17.70;99.90
23721;DHT22;42950;52.134;5.578;2022-07-29T07:44:52;17.90;99.90
23721;DHT22;42950;52.134;5.578;2022-07-29T07:47:18;17.90;99.90
23721;DHT22;42950;52.134;5.578;2022-07-29T07:49:49;18.10;99.90
23721;DHT22;42950;52.134;5.578;2022-07-29T07:52:18;18.20;99.90
23721;DHT22;42950;52.134;5.578;2022-07-29T07:54:44;18.20;99.90
23721;DHT22;42950;52.134;5.578;2022-07-29T07:57:10;18.20;99.90
23721;DHT22;42950;52.134;5.578;2022-07-29T07:59:36;18.30;99.90
23721;DHT22;42950;52.134;5.578;2022-07-29T08:02:05;18.50;99.90
23721;DHT22;42950;52.134;5.578;2022-07-29T08:04:30;18.70;99.90
23721;DHT22;42950;52.134;5.578;2022-07-29T08:06:57;18.90;99.90
23721;DHT22;42950;52.134;5.578;2022-07-29T08:09:24;19.10;99.90
23721;DHT22;42950;52.134;5.578;2022-07-29T08:11:50;19.20;99.90
23721;DHT22;42950;52.134;5.578;2022-07-29T08:14:16;19.10;99.90
23721;DHT22;42950;52.134;5.578;2022-07-29T08:16:42;19.20;99.90
23721;DHT22;42950;52.134;5.578;2022-07-29T08:19:08;19.40;99.90
23721;DHT22;42950;52.134;5.578;2022-07-29T08:21:34;19.80;99.90
23721;DHT22;42950;52.134;5.578;2022-07-29T08:24:00;20.20;99.90
23721;DHT22;42950;52.134;5.578;2022-07-29T08:26:45;20.50;99.90
23721;DHT22;42950;52.134;5.578;2022-07-29T08:29:10;20.40;99.90
23721;DHT22;42950;52.134;5.578;2022-07-29T08:31:37;20.50;99.90
23721;DHT22;42950;52.134;5.578;2022-07-29T08:34:03;20.40;99.90
23721;DHT22;42950;52.134;5.578;2022-07-29T08:36:29;20.30;99.90
23721;DHT22;42950;52.134;5.578;2022-07-29T08:38:55;20.20;99.90
23721;DHT22;42950;52.134;5.578;2022-07-29T08:41:22;20.20;99.90
23721;DHT22;42950;52.134;5.578;2022-07-29T08:43:48;20.20;99.90
23721;DHT22;42950;52.134;5.578;2022-07-29T08:46:15;20.10;99.90
23721;DHT22;42950;52.134;5.578;2022-07-29T08:48:43;20.10;99.90
23721;DHT22;42950;52.134;5.578;2022-07-29T08:51:14;20.20;99.90
23721;DHT22;42950;52.134;5.578;2022-07-29T08:53:42;20.50;99.90
23721;DHT22;42950;52.134;5.578;2022-07-29T08:56:12;20.80;99.90
23721;DHT22;42950;52.134;5.578;2022-07-29T08:58:39;21.00;99.90
23721;DHT22;42950;52.134;5.578;2022-07-29T09:01:06;21.40;99.90
23721;DHT22;42950;52.134;5.578;2022-07-29T09:03:34;21.80;99.90
23721;DHT22;42950;52.134;5.578;2022-07-29T09:06:03;21.70;99.90
23721;DHT22;42950;52.134;5.578;2022-07-29T09:08:32;21.70;99.90
23721;DHT22;42950;52.134;5.578;2022-07-29T09:10:58;21.80;99.90
23721;DHT22;42950;52.134;5.578;2022-07-29T09:13:25;22.10;99.90
23721;DHT22;42950;52.134;5.578;2022-07-29T09:15:52;22.00;99.90
23721;DHT22;42950;52.134;5.578;2022-07-29T09:20:59;21.80;99.90
23721;DHT22;42950;52.134;5.578;2022-07-29T09:24:09;21.80;99.90
23721;DHT22;42950;52.134;5.578;2022-07-29T09:26:40;21.90;99.90
23721;DHT22;42950;52.134;5.578;2022-07-29T09:31:40;21.90;99.90
23721;DHT22;42950;52.134;5.578;2022-07-29T09:34:07;21.90;99.90
23721;DHT22;42950;52.134;5.578;2022-07-29T09:36:49;21.90;99.90
23721;DHT22;42950;52.134;5.578;2022-07-29T09:39:15;21.80;99.90
23721;DHT22;42950;52.134;5.578;2022-07-29T09:41:53;21.70;99.90
23721;DHT22;42950;52.134;5.578;2022-07-29T09:44:21;21.60;99.90
23721;DHT22;42950;52.134;5.578;2022-07-29T09:46:59;21.80;99.90
23721;DHT22;42950;52.134;5.578;2022-07-29T09:49:35;21.90;99.90
23721;DHT22;42950;52.134;5.578;2022-07-29T09:52:05;22.00;99.90
23721;DHT22;42950;52.134;5.578;2022-07-29T09:54:31;21.80;99.90
23721;DHT22;42950;52.134;5.578;2022-07-29T09:57:06;21.60;99.90
23721;DHT22;42950;52.134;5.578;2022-07-29T09:59:34;21.70;99.90
23721;DHT22;42950;52.134;5.578;2022-07-29T10:02:00;21.50;99.90
23721;DHT22;42950;52.134;5.578;2022-07-29T10:04:39;21.60;99.90
23721;DHT22;42950;52.134;5.578;2022-07-29T10:07:04;21.60;99.90
23721;DHT22;42950;52.134;5.578;2022-07-29T10:09:31;21.90;99.90
23721;DHT22;42950;52.134;5.578;2022-07-29T10:12:11;22.00;99.90
23721;DHT22;42950;52.134;5.578;2022-07-29T10:14:40;22.30;99.90
23721;DHT22;42950;52.134;5.578;2022-07-29T10:17:07;22.30;99.90
23721;DHT22;42950;52.134;5.578;2022-07-29T10:19:34;22.70;99.90
23721;DHT22;42950;52.134;5.578;2022-07-29T10:22:03;22.80;99.90
23721;DHT22;42950;52.134;5.578;2022-07-29T10:24:30;23.00;99.90
23721;DHT22;42950;52.134;5.578;2022-07-29T10:26:59;23.30;99.90
23721;DHT22;42950;52.134;5.578;2022-07-29T10:29:25;23.90;99.90
23721;DHT22;42950;52.134;5.578;2022-07-29T10:32:08;24.20;99.90
23721;DHT22;42950;52.134;5.578;2022-07-29T10:34:57;25.00;99.90
23721;DHT22;42950;52.134;5.578;2022-07-29T10:37:52;24.90;99.90
23721;DHT22;42950;52.134;5.578;2022-07-29T10:43:30;24.60;99.90
23721;DHT22;42950;52.134;5.578;2022-07-29T10:45:59;24.90;99.90
23721;DHT22;42950;52.134;5.578;2022-07-29T10:48:26;24.70;99.90
23721;DHT22;42950;52.134;5.578;2022-07-29T10:51:03;24.50;99.90
23721;DHT22;42950;52.134;5.578;2022-07-29T10:53:49;24.30;99.90
23721;DHT22;42950;52.134;5.578;2022-07-29T10:56:32;24.30;99.90
23721;DHT22;42950;52.134;5.578;2022-07-29T11:01:46;24.80;99.90
23721;DHT22;42950;52.134;5.578;2022-07-29T11:04:13;24.90;99.90
23721;DHT22;42950;52.134;5.578;2022-07-29T11:09:27;24.80;99.90
23721;DHT22;42950;52.134;5.578;2022-07-29T11:11:55;25.10;99.90
23721;DHT22;42950;52.134;5.578;2022-07-29T11:17:21;25.20;99.90
23721;DHT22;42950;52.134;5.578;2022-07-29T11:19:47;25.10;99.90
23721;DHT22;42950;52.134;5.578;2022-07-29T11:22:32;25.30;99.90
23721;DHT22;42950;52.134;5.578;2022-07-29T11:25:17;25.60;99.90
23721;DHT22;42950;52.134;5.578;2022-07-29T11:27:47;25.40;99.90
23721;DHT22;42950;52.134;5.578;2022-07-29T11:30:12;25.20;99.90
23721;DHT22;42950;52.134;5.578;2022-07-29T11:32:41;25.30;99.90
23721;DHT22;42950;52.134;5.578;2022-07-29T11:35:13;25.10;99.90
23721;DHT22;42950;52.134;5.578;2022-07-29T11:37:40;24.90;99.90
23721;DHT22;42950;52.134;5.578;2022-07-29T11:45:03;25.40;99.90
23721;DHT22;42950;52.134;5.578;2022-07-29T11:47:37;25.40;99.90
23721;DHT22;42950;52.134;5.578;2022-07-29T11:50:06;25.20;99.90
23721;DHT22;42950;52.134;5.578;2022-07-29T11:52:33;25.10;99.90
23721;DHT22;42950;52.134;5.578;2022-07-29T11:55:05;24.90;99.90
23721;DHT22;42950;52.134;5.578;2022-07-29T11:57:34;24.60;99.90
23721;DHT22;42950;52.134;5.578;2022-07-29T12:00:02;24.40;99.90
23721;DHT22;42950;52.134;5.578;2022-07-29T12:02:39;24.80;99.90
23721;DHT22;42950;52.134;5.578;2022-07-29T12:05:07;25.00;99.90
23721;DHT22;42950;52.134;5.578;2022-07-29T12:07:34;25.40;99.90
23721;DHT22;42950;52.134;5.578;2022-07-29T12:10:00;25.70;99.90
23721;DHT22;42950;52.134;5.578;2022-07-29T12:12:26;25.70;99.90
23721;DHT22;42950;52.134;5.578;2022-07-29T12:14:52;25.70;99.90
23721;DHT22;42950;52.134;5.578;2022-07-29T12:17:34;26.00;99.90
23721;DHT22;42950;52.134;5.578;2022-07-29T12:20:02;25.90;99.90
23721;DHT22;42950;52.134;5.578;2022-07-29T12:22:33;25.80;99.90
23721;DHT22;42950;52.134;5.578;2022-07-29T12:25:11;25.30;99.90
23721;DHT22;42950;52.134;5.578;2022-07-29T12:27:37;25.10;99.90
23721;DHT22;42950;52.134;5.578;2022-07-29T12:30:06;25.20;99.90
23721;DHT22;42950;52.134;5.578;2022-07-29T12:32:37;25.50;99.90
23721;DHT22;42950;52.134;5.578;2022-07-29T12:35:05;25.80;99.90
23721;DHT22;42950;52.134;5.578;2022-07-29T12:37:36;26.10;99.90
23721;DHT22;42950;52.134;5.578;2022-07-29T12:40:04;25.70;99.90
23721;DHT22;42950;52.134;5.578;2022-07-29T12:42:30;25.40;99.90
23721;DHT22;42950;52.134;5.578;2022-07-29T12:44:57;25.20;99.90
23721;DHT22;42950;52.134;5.578;2022-07-29T12:47:23;25.40;99.90
23721;DHT22;42950;52.134;5.578;2022-07-29T12:49:49;25.60;99.90
23721;DHT22;42950;52.134;5.578;2022-07-29T12:52:29;25.60;99.90
23721;DHT22;42950;52.134;5.578;2022-07-29T12:54:55;25.50;99.90
23721;DHT22;42950;52.134;5.578;2022-07-29T12:57:21;25.50;99.90
23721;DHT22;42950;52.134;5.578;2022-07-29T13:00:08;25.70;99.90
23721;DHT22;42950;52.134;5.578;2022-07-29T13:02:36;25.60;99.90
23721;DHT22;42950;52.134;5.578;2022-07-29T13:05:03;25.80;99.90
23721;DHT22;42950;52.134;5.578;2022-07-29T13:07:31;25.80;99.90
23721;DHT22;42950;52.134;5.578;2022-07-29T13:12:37;25.60;99.90
23721;DHT22;42950;52.134;5.578;2022-07-29T13:15:13;25.80;99.90
23721;DHT22;42950;52.134;5.578;2022-07-29T13:17:43;26.10;99.90
23721;DHT22;42950;52.134;5.578;2022-07-29T13:20:10;25.90;99.90
23721;DHT22;42950;52.134;5.578;2022-07-29T13:22:41;26.00;99.90
23721;DHT22;42950;52.134;5.578;2022-07-29T13:25:08;26.10;99.90
23721;DHT22;42950;52.134;5.578;2022-07-29T13:27:36;26.30;99.90
23721;DHT22;42950;52.134;5.578;2022-07-29T13:30:05;26.30;99.90
23721;DHT22;42950;52.134;5.578;2022-07-29T13:32:31;26.50;99.90
23721;DHT22;42950;52.134;5.578;2022-07-29T13:35:06;26.40;99.90
23721;DHT22;42950;52.134;5.578;2022-07-29T13:37:33;26.40;99.90
23721;DHT22;42950;52.134;5.578;2022-07-29T13:40:02;26.40;99.90
23721;DHT22;42950;52.134;5.578;2022-07-29T13:42:28;26.40;99.90
23721;DHT22;42950;52.134;5.578;2022-07-29T13:44:54;26.30;99.90
23721;DHT22;42950;52.134;5.578;2022-07-29T13:47:21;26.10;99.90
23721;DHT22;42950;52.134;5.578;2022-07-29T13:49:47;26.00;99.90
23721;DHT22;42950;52.134;5.578;2022-07-29T13:52:13;26.00;99.90
23721;DHT22;42950;52.134;5.578;2022-07-29T13:54:39;26.10;99.90
23721;DHT22;42950;52.134;5.578;2022-07-29T13:57:05;26.30;99.90
23721;DHT22;42950;52.134;5.578;2022-07-29T13:59:31;26.50;99.90
23721;DHT22;42950;52.134;5.578;2022-07-29T14:01:57;26.60;99.90
23721;DHT22;42950;52.134;5.578;2022-07-29T14:04:23;27.00;99.90
23721;DHT22;42950;52.134;5.578;2022-07-29T14:06:51;26.90;99.90
23721;DHT22;42950;52.134;5.578;2022-07-29T14:09:17;26.90;99.90
23721;DHT22;42950;52.134;5.578;2022-07-29T14:11:43;27.00;99.90
23721;DHT22;42950;52.134;5.578;2022-07-29T14:14:08;27.30;99.90
23721;DHT22;42950;52.134;5.578;2022-07-29T14:16:35;27.40;99.90
23721;DHT22;42950;52.134;5.578;2022-07-29T14:19:01;27.50;99.90
23721;DHT22;42950;52.134;5.578;2022-07-29T14:21:27;27.60;99.90
23721;DHT22;42950;52.134;5.578;2022-07-29T14:23:53;27.80;99.90
23721;DHT22;42950;52.134;5.578;2022-07-29T14:26:21;28.10;99.90
23721;DHT22;42950;52.134;5.578;2022-07-29T14:28:48;28.10;99.90
23721;DHT22;42950;52.134;5.578;2022-07-29T14:31:15;28.00;99.90
23721;DHT22;42950;52.134;5.578;2022-07-29T14:33:41;28.00;99.90
23721;DHT22;42950;52.134;5.578;2022-07-29T14:36:06;28.30;99.90
23721;DHT22;42950;52.134;5.578;2022-07-29T14:38:33;28.30;99.90
23721;DHT22;42950;52.134;5.578;2022-07-29T14:40:58;28.30;99.90
23721;DHT22;42950;52.134;5.578;2022-07-29T14:43:24;28.40;99.90
23721;DHT22;42950;52.134;5.578;2022-07-29T14:45:49;28.60;99.90
23721;DHT22;42950;52.134;5.578;2022-07-29T14:48:15;28.20;99.90
23721;DHT22;42950;52.134;5.578;2022-07-29T14:50:41;28.10;99.90
23721;DHT22;42950;52.134;5.578;2022-07-29T14:53:07;27.90;99.90
23721;DHT22;42950;52.134;5.578;2022-07-29T14:55:34;27.90;99.90
23721;DHT22;42950;52.134;5.578;2022-07-29T14:58:00;27.50;99.90
23721;DHT22;42950;52.134;5.578;2022-07-29T15:00:26;27.00;99.90
23721;DHT22;42950;52.134;5.578;2022-07-29T15:02:52;26.90;99.90
23721;DHT22;42950;52.134;5.578;2022-07-29T15:05:19;27.00;99.90
23721;DHT22;42950;52.134;5.578;2022-07-29T15:07:45;27.00;99.90
23721;DHT22;42950;52.134;5.578;2022-07-29T15:10:11;27.00;99.90
23721;DHT22;42950;52.134;5.578;2022-07-29T15:12:36;27.20;99.90
23721;DHT22;42950;52.134;5.578;2022-07-29T15:15:02;27.30;99.90
23721;DHT22;42950;52.134;5.578;2022-07-29T15:17:28;27.40;99.90
23721;DHT22;42950;52.134;5.578;2022-07-29T15:19:55;27.50;99.90
23721;DHT22;42950;52.134;5.578;2022-07-29T15:22:28;27.30;99.90
23721;DHT22;42950;52.134;5.578;2022-07-29T15:24:53;27.60;99.90
23721;DHT22;42950;52.134;5.578;2022-07-29T15:27:19;27.90;99.90
23721;DHT22;42950;52.134;5.578;2022-07-29T15:29:45;27.90;99.90
23721;DHT22;42950;52.134;5.578;2022-07-29T15:32:11;27.70;99.90
23721;DHT22;42950;52.134;5.578;2022-07-29T15:34:37;27.50;99.90
23721;DHT22;42950;52.134;5.578;2022-07-29T15:37:04;27.10;99.90
23721;DHT22;42950;52.134;5.578;2022-07-29T15:39:29;27.00;99.90
23721;DHT22;42950;52.134;5.578;2022-07-29T15:41:55;27.00;99.90
23721;DHT22;42950;52.134;5.578;2022-07-29T15:44:21;27.10;99.90
23721;DHT22;42950;52.134;5.578;2022-07-29T15:46:48;27.00;99.90
23721;DHT22;42950;52.134;5.578;2022-07-29T15:49:32;26.70;99.90
23721;DHT22;42950;52.134;5.578;2022-07-29T15:51:59;26.80;99.90
23721;DHT22;42950;52.134;5.578;2022-07-29T15:54:26;26.80;99.90
23721;DHT22;42950;52.134;5.578;2022-07-29T15:56:53;26.70;99.90
23721;DHT22;42950;52.134;5.578;2022-07-29T15:59:19;26.50;99.90
23721;DHT22;42950;52.134;5.578;2022-07-29T16:01:46;26.80;99.90
23721;DHT22;42950;52.134;5.578;2022-07-29T16:04:11;26.50;99.90
23721;DHT22;42950;52.134;5.578;2022-07-29T16:06:37;26.30;99.90
23721;DHT22;42950;52.134;5.578;2022-07-29T16:09:03;26.40;99.90